Terminal Aerodrome Forecast
Issued by NWS

Home | Current Version | Previous Version | Text Only | Print | Product List | Glossary On
Versions: 1 2 3 4 5 6 7 8 9 10 11 12 13 14 15 16
000
FTUS46 KSTO 270500
TAFSAC
TAF
KSAC 270520Z 2706/2806 20009G15KT P6SM SKC
     FM270800 19007KT P6SM SKC
      TEMPO 2711/2715 BKN008
     FM272300 20009G15KT P6SM SKC=

USA.gov is the U.S. government's official web portal to all federal, state and local government web resources and services.